Terminal Aerodrome Forecast
Issued by NWS

Home | Current Version | Previous Version | Text Only | Print | Product List | Glossary On
Versions: 1 2 3 4 5 6 7 8 9 10 11 12 13 14 15 16
000
FTUS45 KGJT 190018 AAA
TAFTEX
TAF AMD
KTEX 190018Z 1900/1924 21008KT P6SM BKN110 BKN250
      TEMPO 1900/1903 22010G18KT
     FM190600 18010G16KT P6SM OVC080
     FM190800 19008KT P6SM VCSH OVC050
     FM191100 14005KT P6SM -RASN OVC040
     FM191800 22006KT P6SM VCSH OVC050=

USA.gov is the U.S. government's official web portal to all federal, state and local government web resources and services.